sensor_id;sensor_type;location;lat;lon;timestamp;pressure;altitude;pressure_sealevel;temperature;humidity
59443;BME280;45247;47.466;19.004;2023-11-18T00:00:32;99781.13;;;3.30;100.00
59443;BME280;45247;47.466;19.004;2023-11-18T00:03:00;99761.13;;;3.29;100.00
59443;BME280;45247;47.466;19.004;2023-11-18T00:05:28;99772.47;;;3.28;100.00
59443;BME280;45247;47.466;19.004;2023-11-18T00:07:56;99784.63;;;3.29;100.00
59443;BME280;45247;47.466;19.004;2023-11-18T00:10:24;99784.53;;;3.32;100.00
59443;BME280;45247;47.466;19.004;2023-11-18T00:12:52;99793.25;;;3.31;100.00
59443;BME280;45247;47.466;19.004;2023-11-18T00:15:20;99771.50;;;3.32;100.00
59443;BME280;45247;47.466;19.004;2023-11-18T00:17:50;99785.19;;;3.39;100.00
59443;BME280;45247;47.466;19.004;2023-11-18T00:20:19;99793.91;;;3.38;100.00
59443;BME280;45247;47.466;19.004;2023-11-18T00:22:47;99798.28;;;3.37;100.00
59443;BME280;45247;47.466;19.004;2023-11-18T00:25:15;99795.81;;;3.33;100.00
59443;BME280;45247;47.466;19.004;2023-11-18T00:27:43;99792.41;;;3.31;100.00
59443;BME280;45247;47.466;19.004;2023-11-18T00:30:12;99799.34;;;3.32;100.00
59443;BME280;45247;47.466;19.004;2023-11-18T00:32:40;99811.44;;;3.34;100.00
59443;BME280;45247;47.466;19.004;2023-11-18T00:35:10;99806.94;;;3.38;100.00
59443;BME280;45247;47.466;19.004;2023-11-18T00:37:38;99814.84;;;3.36;100.00
59443;BME280;45247;47.466;19.004;2023-11-18T00:40:07;99808.72;;;3.37;100.00
59443;BME280;45247;47.466;19.004;2023-11-18T00:42:36;99819.16;;;3.37;100.00
59443;BME280;45247;47.466;19.004;2023-11-18T00:45:05;99813.13;;;3.35;100.00
59443;BME280;45247;47.466;19.004;2023-11-18T00:47:34;99819.44;;;3.28;100.00
59443;BME280;45247;47.466;19.004;2023-11-18T00:50:03;99830.56;;;3.33;100.00
59443;BME280;45247;47.466;19.004;2023-11-18T00:52:37;99834.09;;;3.32;100.00
59443;BME280;45247;47.466;19.004;2023-11-18T00:55:08;99826.28;;;3.32;100.00
59443;BME280;45247;47.466;19.004;2023-11-18T00:57:38;99820.25;;;3.30;100.00
59443;BME280;45247;47.466;19.004;2023-11-18T01:00:08;99815.75;;;3.35;100.00
59443;BME280;45247;47.466;19.004;2023-11-18T01:02:40;99813.00;;;3.40;100.00
59443;BME280;45247;47.466;19.004;2023-11-18T01:05:09;99816.53;;;3.37;100.00
59443;BME280;45247;47.466;19.004;2023-11-18T01:07:39;99821.72;;;3.39;100.00
59443;BME280;45247;47.466;19.004;2023-11-18T01:10:08;99822.91;;;3.29;100.00
59443;BME280;45247;47.466;19.004;2023-11-18T01:12:38;99847.41;;;3.23;100.00
59443;BME280;45247;47.466;19.004;2023-11-18T01:15:07;99844.97;;;3.17;100.00
59443;BME280;45247;47.466;19.004;2023-11-18T01:17:37;99842.56;;;3.11;100.00
59443;BME280;45247;47.466;19.004;2023-11-18T01:20:07;99857.44;;;3.07;100.00
59443;BME280;45247;47.466;19.004;2023-11-18T01:22:36;99865.28;;;3.07;100.00
59443;BME280;45247;47.466;19.004;2023-11-18T01:25:08;99852.06;;;3.13;100.00
59443;BME280;45247;47.466;19.004;2023-11-18T01:27:36;99859.22;;;3.07;100.00
59443;BME280;45247;47.466;19.004;2023-11-18T01:30:06;99867.78;;;3.10;100.00
59443;BME280;45247;47.466;19.004;2023-11-18T01:32:34;99873.22;;;3.03;100.00
59443;BME280;45247;47.466;19.004;2023-11-18T01:35:03;99877.50;;;3.05;100.00
59443;BME280;45247;47.466;19.004;2023-11-18T01:37:31;99857.44;;;3.07;100.00
59443;BME280;45247;47.466;19.004;2023-11-18T01:40:00;99865.50;;;2.99;100.00
59443;BME280;45247;47.466;19.004;2023-11-18T01:42:33;99863.72;;;3.01;100.00
59443;BME280;45247;47.466;19.004;2023-11-18T01:45:01;99858.50;;;3.01;100.00
59443;BME280;45247;47.466;19.004;2023-11-18T01:47:31;99868.22;;;2.95;100.00
59443;BME280;45247;47.466;19.004;2023-11-18T01:50:01;99860.53;;;2.90;100.00
59443;BME280;45247;47.466;19.004;2023-11-18T01:52:33;99870.19;;;2.88;100.00
59443;BME280;45247;47.466;19.004;2023-11-18T01:55:01;99867.66;;;2.85;100.00
59443;BME280;45247;47.466;19.004;2023-11-18T01:57:35;99879.63;;;2.92;100.00
59443;BME280;45247;47.466;19.004;2023-11-18T02:00:05;99877.03;;;2.91;100.00
59443;BME280;45247;47.466;19.004;2023-11-18T02:02:33;99879.50;;;2.95;100.00
59443;BME280;45247;47.466;19.004;2023-11-18T02:05:03;99878.91;;;2.87;100.00
59443;BME280;45247;47.466;19.004;2023-11-18T02:07:33;99878.25;;;2.79;100.00
59443;BME280;45247;47.466;19.004;2023-11-18T02:10:03;99893.66;;;2.87;100.00
59443;BME280;45247;47.466;19.004;2023-11-18T02:12:44;99885.91;;;2.85;100.00
59443;BME280;45247;47.466;19.004;2023-11-18T02:15:15;99896.41;;;2.82;100.00
59443;BME280;45247;47.466;19.004;2023-11-18T02:17:45;99888.50;;;2.85;100.00
59443;BME280;45247;47.466;19.004;2023-11-18T02:20:14;99886.59;;;2.92;100.00
59443;BME280;45247;47.466;19.004;2023-11-18T02:22:44;99893.28;;;3.00;100.00
59443;BME280;45247;47.466;19.004;2023-11-18T02:25:15;99893.28;;;3.00;100.00
59443;BME280;45247;47.466;19.004;2023-11-18T02:27:46;99902.81;;;3.01;100.00
59443;BME280;45247;47.466;19.004;2023-11-18T02:30:15;99899.38;;;2.99;100.00
59443;BME280;45247;47.466;19.004;2023-11-18T02:32:47;99910.72;;;2.98;100.00
59443;BME280;45247;47.466;19.004;2023-11-18T02:35:24;99918.59;;;2.97;100.00
59443;BME280;45247;47.466;19.004;2023-11-18T02:37:54;99907.59;;;2.87;100.00
59443;BME280;45247;47.466;19.004;2023-11-18T02:40:27;99906.53;;;2.93;100.00
59443;BME280;45247;47.466;19.004;2023-11-18T02:43:00;99911.91;;;2.87;100.00
59443;BME280;45247;47.466;19.004;2023-11-18T02:45:28;99916.13;;;2.92;100.00
59443;BME280;45247;47.466;19.004;2023-11-18T02:47:59;99902.81;;;3.01;100.00
59443;BME280;45247;47.466;19.004;2023-11-18T02:50:27;99906.97;;;3.09;100.00
59443;BME280;45247;47.466;19.004;2023-11-18T02:52:56;99917.47;;;3.06;100.00
59443;BME280;45247;47.466;19.004;2023-11-18T02:55:24;99919.50;;;2.96;100.00
59443;BME280;45247;47.466;19.004;2023-11-18T02:57:52;99921.97;;;3.00;100.00
59443;BME280;45247;47.466;19.004;2023-11-18T03:00:23;99908.03;;;3.01;100.00
59443;BME280;45247;47.466;19.004;2023-11-18T03:02:51;99909.94;;;2.95;100.00
59443;BME280;45247;47.466;19.004;2023-11-18T03:05:20;99906.28;;;3.02;100.00
59443;BME280;45247;47.466;19.004;2023-11-18T03:07:49;99916.75;;;3.00;100.00
59443;BME280;45247;47.466;19.004;2023-11-18T03:10:20;99920.38;;;2.95;100.00
59443;BME280;45247;47.466;19.004;2023-11-18T03:12:49;99936.97;;;2.92;100.00
59443;BME280;45247;47.466;19.004;2023-11-18T03:15:17;99944.53;;;3.01;100.00
59443;BME280;45247;47.466;19.004;2023-11-18T03:17:48;99943.56;;;3.06;100.00
59443;BME280;45247;47.466;19.004;2023-11-18T03:20:18;99937.50;;;3.04;100.00
59443;BME280;45247;47.466;19.004;2023-11-18T03:22:47;99962.84;;;3.00;100.00
59443;BME280;45247;47.466;19.004;2023-11-18T03:25:15;99945.34;;;3.04;100.00
59443;BME280;45247;47.466;19.004;2023-11-18T03:27:44;99953.13;;;3.05;100.00
59443;BME280;45247;47.466;19.004;2023-11-18T03:30:12;99954.00;;;3.06;100.00
59443;BME280;45247;47.466;19.004;2023-11-18T03:32:41;99943.63;;;3.03;100.00
59443;BME280;45247;47.466;19.004;2023-11-18T03:35:10;99944.28;;;3.11;100.00
59443;BME280;45247;47.466;19.004;2023-11-18T03:37:39;99946.09;;;3.07;100.00
59443;BME280;45247;47.466;19.004;2023-11-18T03:40:12;99970.28;;;3.14;100.00
59443;BME280;45247;47.466;19.004;2023-11-18T03:42:41;99957.13;;;3.17;100.00
59443;BME280;45247;47.466;19.004;2023-11-18T03:45:10;99959.00;;;3.12;100.00
59443;BME280;45247;47.466;19.004;2023-11-18T03:47:38;99954.69;;;3.11;100.00
59443;BME280;45247;47.466;19.004;2023-11-18T03:50:07;99941.72;;;3.09;100.00
59443;BME280;45247;47.466;19.004;2023-11-18T03:52:37;99944.13;;;3.15;100.00
59443;BME280;45247;47.466;19.004;2023-11-18T03:55:07;99944.00;;;3.20;100.00
59443;BME280;45247;47.466;19.004;2023-11-18T03:57:35;99943.16;;;3.19;100.00
59443;BME280;45247;47.466;19.004;2023-11-18T04:00:04;99957.06;;;3.20;100.00
59443;BME280;45247;47.466;19.004;2023-11-18T04:02:34;99964.03;;;3.19;100.00
59443;BME280;45247;47.466;19.004;2023-11-18T04:05:03;99967.56;;;3.17;100.00
59443;BME280;45247;47.466;19.004;2023-11-18T04:07:32;99975.31;;;3.20;100.00
59443;BME280;45247;47.466;19.004;2023-11-18T04:10:01;99977.00;;;3.21;100.00
59443;BME280;45247;47.466;19.004;2023-11-18T04:12:32;99986.78;;;3.14;100.00
59443;BME280;45247;47.466;19.004;2023-11-18T04:15:01;99980.56;;;3.18;100.00
59443;BME280;45247;47.466;19.004;2023-11-18T04:17:31;99983.25;;;3.15;100.00
59443;BME280;45247;47.466;19.004;2023-11-18T04:19:59;99993.75;;;3.14;100.00
59443;BME280;45247;47.466;19.004;2023-11-18T04:22:31;99991.09;;;3.15;100.00
59443;BME280;45247;47.466;19.004;2023-11-18T04:25:01;99985.03;;;3.15;100.00
59443;BME280;45247;47.466;19.004;2023-11-18T04:27:29;99994.34;;;3.23;100.00
59443;BME280;45247;47.466;19.004;2023-11-18T04:29:57;100002.28;;;3.19;100.00
59443;BME280;45247;47.466;19.004;2023-11-18T04:32:25;100004.78;;;3.23;100.00
59443;BME280;45247;47.466;19.004;2023-11-18T04:34:54;100021.41;;;3.19;100.00
59443;BME280;45247;47.466;19.004;2023-11-18T04:37:23;100018.66;;;3.24;100.00
59443;BME280;45247;47.466;19.004;2023-11-18T04:39:51;100016.78;;;3.29;100.00
59443;BME280;45247;47.466;19.004;2023-11-18T04:42:22;100022.81;;;3.31;100.00
59443;BME280;45247;47.466;19.004;2023-11-18T04:44:50;100017.75;;;3.25;100.00
59443;BME280;45247;47.466;19.004;2023-11-18T04:47:18;100026.22;;;3.33;100.00
59443;BME280;45247;47.466;19.004;2023-11-18T04:49:47;100027.84;;;3.37;100.00
59443;BME280;45247;47.466;19.004;2023-11-18T04:52:15;100021.00;;;3.33;100.00
59443;BME280;45247;47.466;19.004;2023-11-18T04:54:43;100023.63;;;3.33;100.00
59443;BME280;45247;47.466;19.004;2023-11-18T04:57:14;100018.47;;;3.32;100.00
59443;BME280;45247;47.466;19.004;2023-11-18T04:59:44;100011.47;;;3.32;100.00
59443;BME280;45247;47.466;19.004;2023-11-18T05:02:12;100029.56;;;3.38;100.00
59443;BME280;45247;47.466;19.004;2023-11-18T05:04:40;100036.50;;;3.39;100.00
59443;BME280;45247;47.466;19.004;2023-11-18T05:07:09;100031.44;;;3.33;100.00
59443;BME280;45247;47.466;19.004;2023-11-18T05:09:37;100030.44;;;3.39;100.00
59443;BME280;45247;47.466;19.004;2023-11-18T05:12:06;100031.28;;;3.39;100.00
59443;BME280;45247;47.466;19.004;2023-11-18T05:14:35;100020.03;;;3.37;100.00
59443;BME280;45247;47.466;19.004;2023-11-18T05:17:04;100029.47;;;3.41;100.00
59443;BME280;45247;47.466;19.004;2023-11-18T05:19:32;100013.91;;;3.38;100.00
59443;BME280;45247;47.466;19.004;2023-11-18T05:22:01;100033.06;;;3.37;100.00
59443;BME280;45247;47.466;19.004;2023-11-18T05:24:29;100026.94;;;3.40;100.00
59443;BME280;45247;47.466;19.004;2023-11-18T05:26:57;100028.81;;;3.35;100.00
59443;BME280;45247;47.466;19.004;2023-11-18T05:29:28;100029.66;;;3.35;100.00
59443;BME280;45247;47.466;19.004;2023-11-18T05:31:56;100040.00;;;3.38;100.00
59443;BME280;45247;47.466;19.004;2023-11-18T05:34:26;100023.41;;;3.41;100.00
59443;BME280;45247;47.466;19.004;2023-11-18T05:36:54;100032.16;;;3.40;100.00
59443;BME280;45247;47.466;19.004;2023-11-18T05:39:24;100033.06;;;3.37;100.00
59443;BME280;45247;47.466;19.004;2023-11-18T05:41:54;100031.56;;;3.30;100.00
59443;BME280;45247;47.466;19.004;2023-11-18T05:44:22;100028.44;;;3.16;100.00
59443;BME280;45247;47.466;19.004;2023-11-18T05:46:57;100033.78;;;3.13;100.00
59443;BME280;45247;47.466;19.004;2023-11-18T05:49:27;100043.50;;;3.06;100.00
59443;BME280;45247;47.466;19.004;2023-11-18T05:51:55;100015.63;;;3.08;100.00
59443;BME280;45247;47.466;19.004;2023-11-18T05:54:23;100046.06;;;3.08;100.00
59443;BME280;45247;47.466;19.004;2023-11-18T05:56:53;100050.53;;;3.04;100.00
59443;BME280;45247;47.466;19.004;2023-11-18T05:59:26;100061.94;;;3.00;100.00
59443;BME280;45247;47.466;19.004;2023-11-18T06:01:54;100055.09;;;2.94;100.00
59443;BME280;45247;47.466;19.004;2023-11-18T06:04:23;100059.25;;;3.01;100.00
59443;BME280;45247;47.466;19.004;2023-11-18T06:06:53;100066.25;;;3.01;100.00
59443;BME280;45247;47.466;19.004;2023-11-18T06:09:22;100061.81;;;3.05;100.00
59443;BME280;45247;47.466;19.004;2023-11-18T06:11:52;100061.56;;;3.14;100.00
59443;BME280;45247;47.466;19.004;2023-11-18T06:14:21;100077.34;;;3.08;100.00
59443;BME280;45247;47.466;19.004;2023-11-18T06:16:53;100057.25;;;3.13;100.00
59443;BME280;45247;47.466;19.004;2023-11-18T06:19:22;100074.63;;;3.12;100.00
59443;BME280;45247;47.466;19.004;2023-11-18T06:21:50;100071.03;;;3.16;100.00
59443;BME280;45247;47.466;19.004;2023-11-18T06:24:20;100064.00;;;3.20;100.00
59443;BME280;45247;47.466;19.004;2023-11-18T06:26:48;100052.91;;;3.12;100.00
59443;BME280;45247;47.466;19.004;2023-11-18T06:29:16;100057.13;;;3.16;100.00
59443;BME280;45247;47.466;19.004;2023-11-18T06:31:45;100072.06;;;3.11;100.00
59443;BME280;45247;47.466;19.004;2023-11-18T06:34:13;100067.38;;;3.23;100.00
59443;BME280;45247;47.466;19.004;2023-11-18T06:36:41;100079.31;;;3.32;100.00
59443;BME280;45247;47.466;19.004;2023-11-18T06:39:09;100076.56;;;3.37;100.00
59443;BME280;45247;47.466;19.004;2023-11-18T06:41:41;100074.75;;;3.40;100.00
59443;BME280;45247;47.466;19.004;2023-11-18T06:44:16;100079.72;;;3.49;100.00
59443;BME280;45247;47.466;19.004;2023-11-18T06:46:45;100077.81;;;3.55;100.00
59443;BME280;45247;47.466;19.004;2023-11-18T06:49:13;100075.25;;;3.53;100.00
59443;BME280;45247;47.466;19.004;2023-11-18T06:51:43;100074.34;;;3.56;100.00
59443;BME280;45247;47.466;19.004;2023-11-18T06:54:11;100085.44;;;3.62;100.00
59443;BME280;45247;47.466;19.004;2023-11-18T06:56:42;100081.84;;;3.66;100.00
59443;BME280;45247;47.466;19.004;2023-11-18T06:59:13;100073.97;;;3.68;100.00
59443;BME280;45247;47.466;19.004;2023-11-18T07:01:43;100073.94;;;3.69;100.00
59443;BME280;45247;47.466;19.004;2023-11-18T07:04:13;100083.25;;;3.78;100.00
59443;BME280;45247;47.466;19.004;2023-11-18T07:06:42;100082.56;;;3.71;100.00
59443;BME280;45247;47.466;19.004;2023-11-18T07:09:11;100082.34;;;3.79;100.00
59443;BME280;45247;47.466;19.004;2023-11-18T07:11:47;100043.00;;;3.85;100.00
59443;BME280;45247;47.466;19.004;2023-11-18T07:14:15;100076.09;;;3.85;100.00
59443;BME280;45247;47.466;19.004;2023-11-18T07:16:44;100062.72;;;3.95;100.00
59443;BME280;45247;47.466;19.004;2023-11-18T07:19:13;100061.91;;;3.93;100.00
59443;BME280;45247;47.466;19.004;2023-11-18T07:21:48;100063.63;;;3.94;100.00
59443;BME280;45247;47.466;19.004;2023-11-18T07:24:17;100079.06;;;4.02;100.00
59443;BME280;45247;47.466;19.004;2023-11-18T07:26:49;100053.63;;;4.09;100.00
59443;BME280;45247;47.466;19.004;2023-11-18T07:29:18;100063.84;;;4.16;100.00
59443;BME280;45247;47.466;19.004;2023-11-18T07:31:47;100063.00;;;4.16;100.00
59443;BME280;45247;47.466;19.004;2023-11-18T07:34:16;100074.66;;;4.32;100.00
59443;BME280;45247;47.466;19.004;2023-11-18T07:36:44;100066.94;;;4.29;100.00
59443;BME280;45247;47.466;19.004;2023-11-18T07:39:14;100077.25;;;4.32;100.00
59443;BME280;45247;47.466;19.004;2023-11-18T07:41:52;100082.81;;;4.49;100.00
59443;BME280;45247;47.466;19.004;2023-11-18T07:44:20;100094.38;;;4.42;100.00
59443;BME280;45247;47.466;19.004;2023-11-18T07:46:48;100072.72;;;4.39;100.00
59443;BME280;45247;47.466;19.004;2023-11-18T07:49:17;100092.28;;;4.53;100.00
59443;BME280;45247;47.466;19.004;2023-11-18T07:51:45;100084.09;;;4.64;100.00
59443;BME280;45247;47.466;19.004;2023-11-18T07:54:13;100083.25;;;4.64;100.00
59443;BME280;45247;47.466;19.004;2023-11-18T07:56:42;100103.34;;;4.62;100.00
59443;BME280;45247;47.466;19.004;2023-11-18T07:59:14;100103.94;;;4.70;100.00
59443;BME280;45247;47.466;19.004;2023-11-18T08:01:45;100109.84;;;4.76;100.00
59443;BME280;45247;47.466;19.004;2023-11-18T08:04:13;100115.63;;;4.86;100.00
59443;BME280;45247;47.466;19.004;2023-11-18T08:06:41;100116.69;;;4.81;100.00
59443;BME280;45247;47.466;19.004;2023-11-18T08:09:10;100141.00;;;4.84;100.00
59443;BME280;45247;47.466;19.004;2023-11-18T08:11:41;100138.06;;;4.93;100.00
59443;BME280;45247;47.466;19.004;2023-11-18T08:14:09;100132.06;;;5.16;100.00
59443;BME280;45247;47.466;19.004;2023-11-18T08:16:39;100134.53;;;5.21;100.00
59443;BME280;45247;47.466;19.004;2023-11-18T08:19:07;100135.84;;;5.08;100.00
59443;BME280;45247;47.466;19.004;2023-11-18T08:21:36;100115.00;;;5.05;100.00
59443;BME280;45247;47.466;19.004;2023-11-18T08:24:06;100125.06;;;5.17;100.00
59443;BME280;45247;47.466;19.004;2023-11-18T08:26:35;100115.59;;;5.14;100.00
59443;BME280;45247;47.466;19.004;2023-11-18T08:29:04;100115.69;;;5.11;100.00
59443;BME280;45247;47.466;19.004;2023-11-18T08:31:33;100121.53;;;5.18;100.00
59443;BME280;45247;47.466;19.004;2023-11-18T08:34:03;100129.75;;;5.07;100.00
59443;BME280;45247;47.466;19.004;2023-11-18T08:36:31;100128.50;;;5.19;100.00
59443;BME280;45247;47.466;19.004;2023-11-18T08:39:00;100133.19;;;5.34;100.00
59443;BME280;45247;47.466;19.004;2023-11-18T08:41:29;100116.03;;;5.27;100.00
59443;BME280;45247;47.466;19.004;2023-11-18T08:43:58;100137.06;;;5.24;100.00
59443;BME280;45247;47.466;19.004;2023-11-18T08:46:46;100141.13;;;5.33;100.00
59443;BME280;45247;47.466;19.004;2023-11-18T08:49:16;100138.69;;;5.51;100.00
59443;BME280;45247;47.466;19.004;2023-11-18T08:51:48;100135.19;;;5.52;100.00
59443;BME280;45247;47.466;19.004;2023-11-18T08:54:23;100137.59;;;5.59;100.00
59443;BME280;45247;47.466;19.004;2023-11-18T08:56:52;100143.19;;;5.73;100.00
59443;BME280;45247;47.466;19.004;2023-11-18T08:59:21;100161.25;;;5.56;100.00
59443;BME280;45247;47.466;19.004;2023-11-18T09:01:52;100154.34;;;5.78;100.00
59443;BME280;45247;47.466;19.004;2023-11-18T09:04:24;100159.53;;;5.80;100.00
59443;BME280;45247;47.466;19.004;2023-11-18T09:06:52;100129.41;;;5.68;100.00
59443;BME280;45247;47.466;19.004;2023-11-18T09:09:21;100164.72;;;5.81;100.00
59443;BME280;45247;47.466;19.004;2023-11-18T09:11:54;100162.44;;;5.72;100.00
59443;BME280;45247;47.466;19.004;2023-11-18T09:14:26;100166.84;;;5.96;100.00
59443;BME280;45247;47.466;19.004;2023-11-18T09:16:54;100158.53;;;6.09;100.00
59443;BME280;45247;47.466;19.004;2023-11-18T09:19:25;100165.22;;;6.16;100.00
59443;BME280;45247;47.466;19.004;2023-11-18T09:21:53;100156.38;;;5.95;100.00
59443;BME280;45247;47.466;19.004;2023-11-18T09:24:21;100155.34;;;6.00;100.00
59443;BME280;45247;47.466;19.004;2023-11-18T09:26:52;100166.81;;;6.20;100.00
59443;BME280;45247;47.466;19.004;2023-11-18T09:29:22;100137.59;;;6.07;100.00
59443;BME280;45247;47.466;19.004;2023-11-18T09:31:51;100135.09;;;6.27;100.00
59443;BME280;45247;47.466;19.004;2023-11-18T09:34:21;100129.06;;;6.25;99.50
59443;BME280;45247;47.466;19.004;2023-11-18T09:36:55;100149.50;;;6.16;100.00
59443;BME280;45247;47.466;19.004;2023-11-18T09:39:24;100149.84;;;6.30;100.00
59443;BME280;45247;47.466;19.004;2023-11-18T09:42:05;100164.06;;;5.99;100.00
59443;BME280;45247;47.466;19.004;2023-11-18T09:44:38;100140.47;;;6.01;100.00
59443;BME280;45247;47.466;19.004;2023-11-18T09:47:08;100142.84;;;6.31;100.00
59443;BME280;45247;47.466;19.004;2023-11-18T09:49:44;100145.06;;;6.18;98.44
59443;BME280;45247;47.466;19.004;2023-11-18T09:52:16;100122.78;;;6.06;99.18
59443;BME280;45247;47.466;19.004;2023-11-18T09:54:53;100108.59;;;6.12;100.00
59443;BME280;45247;47.466;19.004;2023-11-18T09:57:31;100094.44;;;6.17;99.23
59443;BME280;45247;47.466;19.004;2023-11-18T10:00:02;100124.28;;;6.13;98.09
59443;BME280;45247;47.466;19.004;2023-11-18T10:02:47;100125.69;;;6.22;98.20
59443;BME280;45247;47.466;19.004;2023-11-18T10:05:20;100120.75;;;6.14;100.00
59443;BME280;45247;47.466;19.004;2023-11-18T10:07:51;100116.81;;;6.26;98.87
59443;BME280;45247;47.466;19.004;2023-11-18T10:10:20;100134.53;;;6.19;98.42
59443;BME280;45247;47.466;19.004;2023-11-18T10:12:50;100126.09;;;6.11;96.25
59443;BME280;45247;47.466;19.004;2023-11-18T10:15:21;100114.41;;;6.20;97.58
59443;BME280;45247;47.466;19.004;2023-11-18T10:17:52;100123.75;;;6.27;96.09
59443;BME280;45247;47.466;19.004;2023-11-18T10:20:43;100114.59;;;6.37;93.82
59443;BME280;45247;47.466;19.004;2023-11-18T10:23:14;100113.56;;;6.41;94.67
59443;BME280;45247;47.466;19.004;2023-11-18T10:25:46;100126.75;;;6.40;93.63
59443;BME280;45247;47.466;19.004;2023-11-18T10:28:22;100130.53;;;6.55;94.15
59443;BME280;45247;47.466;19.004;2023-11-18T10:30:51;100115.63;;;6.57;93.54
59443;BME280;45247;47.466;19.004;2023-11-18T10:33:20;100122.00;;;6.49;93.95
59443;BME280;45247;47.466;19.004;2023-11-18T10:35:49;100123.22;;;6.41;94.67
59443;BME280;45247;47.466;19.004;2023-11-18T10:38:21;100127.03;;;6.56;94.61
59443;BME280;45247;47.466;19.004;2023-11-18T10:40:56;100105.41;;;6.27;93.63
59443;BME280;45247;47.466;19.004;2023-11-18T10:43:27;100118.09;;;6.38;94.89
59443;BME280;45247;47.466;19.004;2023-11-18T10:46:06;100128.56;;;6.38;93.72
59443;BME280;45247;47.466;19.004;2023-11-18T10:48:43;100125.06;;;6.61;91.62
59443;BME280;45247;47.466;19.004;2023-11-18T10:51:15;100126.75;;;6.62;88.49
59443;BME280;45247;47.466;19.004;2023-11-18T10:53:49;100131.63;;;6.71;91.00
59443;BME280;45247;47.466;19.004;2023-11-18T10:56:26;100118.22;;;6.57;91.91
59443;BME280;45247;47.466;19.004;2023-11-18T10:58:55;100125.44;;;6.51;90.31
59443;BME280;45247;47.466;19.004;2023-11-18T11:01:28;100119.00;;;6.59;90.54
59443;BME280;45247;47.466;19.004;2023-11-18T11:03:59;100138.72;;;6.69;90.42
59443;BME280;45247;47.466;19.004;2023-11-18T11:06:31;100146.69;;;6.44;92.47
59443;BME280;45247;47.466;19.004;2023-11-18T11:09:01;100174.09;;;6.59;88.42
59443;BME280;45247;47.466;19.004;2023-11-18T11:11:46;100156.66;;;6.58;91.62
59443;BME280;45247;47.466;19.004;2023-11-18T11:14:16;100177.25;;;6.67;90.39
59443;BME280;45247;47.466;19.004;2023-11-18T11:16:48;100185.47;;;6.81;89.30
59443;BME280;45247;47.466;19.004;2023-11-18T11:19:25;100173.69;;;6.46;90.52
59443;BME280;45247;47.466;19.004;2023-11-18T11:22:01;100177.25;;;6.67;87.38
59443;BME280;45247;47.466;19.004;2023-11-18T11:24:46;100171.34;;;6.62;90.09
59443;BME280;45247;47.466;19.004;2023-11-18T11:27:22;100170.69;;;6.57;90.97
59443;BME280;45247;47.466;19.004;2023-11-18T11:29:59;100173.44;;;6.75;90.40
59443;BME280;45247;47.466;19.004;2023-11-18T11:32:42;100177.63;;;6.80;90.26
59443;BME280;45247;47.466;19.004;2023-11-18T11:35:19;100181.00;;;6.83;89.25
59443;BME280;45247;47.466;19.004;2023-11-18T11:37:52;100201.06;;;6.84;87.84
59443;BME280;45247;47.466;19.004;2023-11-18T11:40:22;100212.22;;;6.89;85.98
59443;BME280;45247;47.466;19.004;2023-11-18T11:42:51;100199.00;;;6.92;85.09
59443;BME280;45247;47.466;19.004;2023-11-18T11:45:23;100211.81;;;6.78;88.80
59443;BME280;45247;47.466;19.004;2023-11-18T11:47:57;100222.13;;;7.05;86.21
59443;BME280;45247;47.466;19.004;2023-11-18T11:51:09;100234.13;;;6.88;87.92
59443;BME280;45247;47.466;19.004;2023-11-18T11:53:47;100231.50;;;6.66;88.23
59443;BME280;45247;47.466;19.004;2023-11-18T11:56:17;100249.25;;;6.60;85.29
59443;BME280;45247;47.466;19.004;2023-11-18T11:58:48;100226.88;;;6.49;88.86
59443;BME280;45247;47.466;19.004;2023-11-18T12:01:24;100240.34;;;6.64;90.33
59443;BME280;45247;47.466;19.004;2023-11-18T12:03:57;100257.53;;;6.71;88.77
59443;BME280;45247;47.466;19.004;2023-11-18T12:06:28;100241.69;;;6.74;86.58
59443;BME280;45247;47.466;19.004;2023-11-18T12:08:57;100252.19;;;6.74;87.52
59443;BME280;45247;47.466;19.004;2023-11-18T12:11:32;100277.19;;;6.61;86.32
59443;BME280;45247;47.466;19.004;2023-11-18T12:14:05;100262.63;;;6.52;87.76
59443;BME280;45247;47.466;19.004;2023-11-18T12:17:00;100249.34;;;6.57;85.95
59443;BME280;45247;47.466;19.004;2023-11-18T12:19:35;100268.50;;;6.59;86.34
59443;BME280;45247;47.466;19.004;2023-11-18T12:22:15;100266.78;;;6.58;85.96
59443;BME280;45247;47.466;19.004;2023-11-18T12:28:13;100271.50;;;6.71;84.39
59443;BME280;45247;47.466;19.004;2023-11-18T12:30:44;100272.03;;;6.58;84.25
59443;BME280;45247;47.466;19.004;2023-11-18T12:33:23;100270.09;;;6.39;85.83
59443;BME280;45247;47.466;19.004;2023-11-18T12:42:41;100246.94;;;6.27;83.88
59443;BME280;45247;47.466;19.004;2023-11-18T12:45:38;100244.50;;;6.22;85.68
59443;BME280;45247;47.466;19.004;2023-11-18T12:48:14;100235.94;;;6.17;87.26
59443;BME280;45247;47.466;19.004;2023-11-18T12:50:43;100238.75;;;6.13;89.15
59443;BME280;45247;47.466;19.004;2023-11-18T12:53:13;100216.59;;;5.96;89.43
59443;BME280;45247;47.466;19.004;2023-11-18T12:55:46;100228.03;;;5.94;91.88
59443;BME280;45247;47.466;19.004;2023-11-18T12:58:17;100236.38;;;6.05;89.03
59443;BME280;45247;47.466;19.004;2023-11-18T13:00:47;100259.56;;;6.16;86.72
59443;BME280;45247;47.466;19.004;2023-11-18T13:03:16;100266.56;;;6.17;88.67
59443;BME280;45247;47.466;19.004;2023-11-18T13:05:45;100275.69;;;6.05;87.27
59443;BME280;45247;47.466;19.004;2023-11-18T13:08:13;100278.94;;;6.12;87.48
59443;BME280;45247;47.466;19.004;2023-11-18T13:10:43;100285.78;;;6.16;87.09
59443;BME280;45247;47.466;19.004;2023-11-18T13:13:11;100264.63;;;6.22;87.60